Detall de PIREP

Printer-friendly versionPDF version

[2011/12/30 17:27:00]
Flight IATA:CT0003
Pilot Number:026
Company ICAO:CAT
Aircraft Type:DC85/A
PAX:132
Departing Airport: LICJ
Destination Airport: LIRN
Alternate Airport:LIRA
Online: VATSIM
Route:ROSAS UM742 SOR
Flight Level:F200
No Slew and time accel
No pause
Crash detect
Detect pilot in Cockpit between each 30 and 45 minutes
17:27 Zero fuel Weight: 179382 Lbs, Fuel Weight: 21000 Lbs
17:27 VATSIM:LICJ 301650Z 35015KT 9999 FEW020 SCT060 13/09 Q1013
17:27 VATSIM:LIRN 301650Z 07002KT 3000 BR SCT070 08/06 Q1010
17:27 VOICE CATALONIAN / IATA CT0003
17:32 Parking Brakes off
17:45 Take-off
17:45 Take off Weight: 198916 Lbs
17:45 Wind: 289º @ 013 Knots Heading: 247º
17:45 POS N38º 10´ 42´´ E013º 05´ 53´´
17:45 Flaps:2 at 173 Knots
17:45 Gear Up: 177 Knots
17:46 Flaps:1 at 174 Knots
17:47 Flaps:0 at 184 Knots
17:53 TOC
17:53 Fuel Weight: 16744 Lb
18:00 Wind:310º@014 Knots Heading: 017º Ground Speed: 415 Knots Altitude 19927 ft
18:07 TOD
18:07 Fuel Weight: 13494 Lb
18:15 Wind:001º@010 Knots Heading: 293º Ground Speed: 236 Knots Altitude 6085 ft
18:20 Flaps:1 at 207 Knots
18:20 Flaps:2 at 207 Knots
18:21 Flaps:3 at 209 Knots
18:21 Flaps:4 at 198 Knots
18:21 Gear Down: 190 Knots
18:21 Gear Up: 188 Knots
18:21 Flaps:3 at 186 Knots
18:21 Flaps:2 at 185 Knots
18:21 Flaps:1 at 203 Knots
18:22 Flaps:0 at 218 Knots
18:30 Wind:007º@009 Knots Heading: 166º Ground Speed: 271 Knots Altitude 5820 ft
18:37 Gear Down: 219 Knots
18:38 Flaps:1 at 180 Knots
18:38 Flaps:2 at 154 Knots
18:39 Flaps:3 at 156 Knots
18:39 Flaps:4 at 158 Knots
18:39 Flaps:5 at 157 Knots
18:40 TouchDown:Rate -418 ft/min Speed: 118 Knots
18:40 VATSIM:LIRN 301820Z 08003KT 3000 BR NSC 07/06 Q1009
18:40 Land
18:40 Wind:076º@003 Knots
18:40 Heading: 052º
18:40 Flight Duration: 00:55
18:40 Landing Weight: 189793 Lbs
18:40 POS N40º 53´ 15´´ E014º 17´ 39´´
18:45 Parking brakes on
18:45 Block to Block Duration: 01:13
18:45 Final Fuel: 9922 Lbls
18:45 Spent Fuel: 11078 Lbls
18:45 Flight Length: 210 NM
18:45 TOD Land Length: 77 NM

Exportar CSV

Powered by Drupal - Modified by Danger4k